createdAt,value
2022-09-15T10:21:16.402Z,6204.00
2022-09-15T10:22:16.372Z,6120.00
2022-09-15T10:23:17.480Z,5996.00
2022-09-15T10:24:18.175Z,6236.00
2022-09-15T10:25:18.475Z,7188.00
2022-09-15T10:26:17.482Z,7508.00
2022-09-15T10:27:17.437Z,7496.00
2022-09-15T10:28:17.430Z,7160.00
2022-09-15T10:29:17.424Z,7104.00
2022-09-15T10:30:17.433Z,6468.00
2022-09-15T10:31:17.497Z,5904.00
2022-09-15T10:32:19.755Z,5492.00
2022-09-15T10:33:17.375Z,5976.00
2022-09-15T10:34:17.380Z,7116.00
2022-09-15T10:35:17.401Z,8828.00
2022-09-15T10:36:17.347Z,9824.00
2022-09-15T10:37:17.340Z,9012.00
2022-09-15T10:38:17.325Z,8780.00
2022-09-15T10:39:17.315Z,8688.00
2022-09-15T10:41:01.792Z,8556.00
2022-09-15T10:42:01.765Z,8972.00
2022-09-15T10:43:02.922Z,10160.00
2022-09-15T10:44:02.865Z,9980.00
2022-09-15T10:45:02.866Z,9100.00
2022-09-15T10:46:02.919Z,8312.00
2022-09-15T10:47:02.836Z,7608.00
2022-09-15T10:48:02.819Z,6796.00
2022-09-15T10:49:02.810Z,5928.00
2022-09-15T10:50:02.827Z,5188.00
2022-09-15T10:51:02.799Z,4776.00
2022-09-15T10:52:02.794Z,4772.00
2022-09-15T10:53:02.791Z,4872.00
2022-09-15T10:54:02.781Z,5032.00
2022-09-15T10:55:02.789Z,4980.00
2022-09-15T10:56:02.742Z,4820.00
2022-09-15T10:57:02.751Z,4496.00
2022-09-15T10:58:02.719Z,4292.00
2022-09-15T10:59:02.708Z,4216.00
2022-09-15T11:00:02.699Z,4276.00
2022-09-15T11:01:02.780Z,4340.00
2022-09-15T11:02:02.736Z,4320.00
2022-09-15T11:03:03.680Z,4368.00
2022-09-15T11:04:02.656Z,4400.00
2022-09-15T11:05:02.669Z,4356.00
2022-09-15T11:06:02.659Z,4348.00
2022-09-15T11:07:02.626Z,4336.00
2022-09-15T11:08:02.619Z,4360.00
2022-09-15T11:09:02.621Z,4376.00
2022-09-15T11:10:02.612Z,4404.00
2022-09-15T11:11:02.633Z,4520.00
2022-09-15T11:12:03.116Z,4608.00
2022-09-15T11:13:02.609Z,4720.00
2022-09-15T11:14:02.610Z,4956.00
2022-09-15T11:15:02.557Z,5200.00
2022-09-15T11:16:02.603Z,5468.00
2022-09-15T11:17:02.574Z,5860.00
2022-09-15T11:18:02.615Z,6636.00
2022-09-15T11:19:02.523Z,7640.00
2022-09-15T11:20:02.533Z,8240.00
2022-09-15T11:21:02.521Z,8856.00
2022-09-15T11:22:02.504Z,8544.00
2022-09-15T11:23:03.210Z,8140.00
2022-09-15T11:24:02.467Z,7468.00
2022-09-15T11:25:03.054Z,6988.00
2022-09-15T11:26:02.455Z,6688.00
2022-09-15T11:27:02.586Z,6416.00
2022-09-15T11:28:02.420Z,6132.00
2022-09-15T11:29:02.874Z,5800.00
2022-09-15T11:30:02.412Z,5524.00
2022-09-15T11:31:02.468Z,5440.00
2022-09-15T11:33:02.384Z,5492.00
2022-09-15T11:34:02.389Z,5472.00
2022-09-15T11:35:02.347Z,5572.00
2022-09-15T11:36:02.355Z,6028.00
2022-09-15T11:37:02.331Z,6356.00
2022-09-15T11:38:02.333Z,6568.00
2022-09-15T11:39:02.300Z,6848.00
2022-09-15T11:40:02.377Z,7152.00
2022-09-15T11:41:02.292Z,7016.00
2022-09-15T11:42:02.286Z,6592.00
2022-09-15T11:43:02.280Z,5984.00
2022-09-15T11:44:02.283Z,5660.00
2022-09-15T11:45:02.289Z,5740.00
2022-09-15T11:46:02.313Z,5880.00
2022-09-15T11:47:02.274Z,6052.00
2022-09-15T11:48:02.259Z,6160.00
2022-09-15T11:49:02.231Z,6700.00
2022-09-15T11:50:02.229Z,7276.00
2022-09-15T11:51:02.233Z,7784.00
2022-09-15T11:52:02.226Z,8744.00
2022-09-15T11:53:02.193Z,9540.00
2022-09-15T11:54:02.178Z,9832.00
2022-09-15T11:55:02.189Z,9000.00
2022-09-15T11:56:02.191Z,8544.00
2022-09-15T11:57:02.160Z,8640.00
2022-09-15T11:58:02.146Z,8824.00
2022-09-15T11:59:02.134Z,9124.00
2022-09-15T12:00:02.125Z,9696.00
2022-09-15T12:01:02.122Z,10200.00
2022-09-15T12:02:02.188Z,10472.00
2022-09-15T12:03:02.113Z,10576.00
2022-09-15T12:04:02.069Z,10540.00
2022-09-15T12:05:02.045Z,10412.00
2022-09-15T12:06:02.091Z,10028.00
2022-09-15T12:07:02.130Z,9664.00
2022-09-15T12:08:02.168Z,9504.00
2022-09-15T12:09:02.010Z,8900.00
2022-09-15T12:10:01.989Z,8652.00
2022-09-15T12:11:02.051Z,8880.00
2022-09-15T12:12:02.012Z,8888.00
2022-09-15T12:13:02.089Z,8728.00
2022-09-15T12:14:02.012Z,9048.00
2022-09-15T12:15:01.977Z,9736.00
2022-09-15T12:16:01.946Z,9492.00
2022-09-15T12:17:01.941Z,8924.00
2022-09-15T12:18:06.610Z,9540.00
2022-09-15T12:19:02.909Z,9516.00
2022-09-15T12:20:02.413Z,10592.00
2022-09-15T12:21:01.882Z,12364.00
2022-09-15T12:22:01.882Z,13080.00
2022-09-15T12:23:01.857Z,12568.00
2022-09-15T12:24:01.845Z,12152.00
2022-09-15T12:25:01.905Z,12392.00
2022-09-15T12:26:01.876Z,12800.00
2022-09-15T12:27:01.908Z,12356.00
2022-09-15T12:28:01.861Z,12104.00
2022-09-15T12:29:01.894Z,11568.00
2022-09-15T12:30:01.861Z,11108.00
2022-09-15T12:31:01.905Z,11444.00
2022-09-15T12:32:01.855Z,12212.00
2022-09-15T12:33:01.798Z,12504.00
2022-09-15T12:34:01.756Z,12636.00
2022-09-15T12:35:01.741Z,12576.00
2022-09-15T12:36:01.736Z,12444.00
2022-09-15T12:37:01.735Z,17344.00
2022-09-15T12:38:01.712Z,16352.00
2022-09-15T12:39:01.704Z,15904.00
2022-09-15T12:40:01.803Z,11872.00
2022-09-15T12:41:01.673Z,12428.00
2022-09-15T12:42:01.693Z,10608.00
2022-09-15T12:43:01.650Z,10716.00
2022-09-15T12:44:01.644Z,10692.00
2022-09-15T12:45:01.641Z,10488.00
2022-09-15T12:46:01.702Z,10484.00
2022-09-15T12:47:01.637Z,11208.00
2022-09-15T12:48:01.600Z,12764.00
2022-09-15T12:49:01.599Z,12604.00
2022-09-15T12:50:01.580Z,11448.00
2022-09-15T12:51:01.582Z,10796.00
2022-09-15T12:52:01.595Z,10176.00
2022-09-15T12:53:01.561Z,9176.00
2022-09-15T12:54:01.543Z,9992.00
2022-09-15T12:55:01.539Z,9196.00
2022-09-15T12:56:01.529Z,8616.00
2022-09-15T12:57:01.536Z,8576.00
2022-09-15T12:58:01.543Z,8940.00
2022-09-15T12:59:05.898Z,9824.00
2022-09-15T13:00:03.554Z,10080.00
2022-09-15T13:01:17.616Z,10048.00
2022-09-15T13:02:03.576Z,10020.00
2022-09-15T13:03:01.506Z,10220.00
2022-09-15T13:04:01.722Z,10584.00
2022-09-15T13:05:01.446Z,10232.00
2022-09-15T13:06:01.425Z,9452.00
2022-09-15T13:07:01.438Z,9104.00
2022-09-15T13:08:01.405Z,9148.00
2022-09-15T13:09:01.390Z,9548.00
2022-09-15T13:10:01.380Z,10192.00
2022-09-15T13:11:01.380Z,11092.00
2022-09-15T13:12:01.366Z,11700.00
2022-09-15T13:13:01.393Z,11940.00
2022-09-15T13:14:01.342Z,12200.00
2022-09-15T13:15:01.332Z,12408.00
2022-09-15T13:16:01.395Z,12552.00
2022-09-15T13:17:01.313Z,12748.00
2022-09-15T13:18:01.334Z,12896.00
2022-09-15T13:19:01.301Z,12900.00
2022-09-15T13:20:01.290Z,12880.00
2022-09-15T13:21:01.283Z,12872.00
2022-09-15T13:22:01.270Z,12592.00
2022-09-15T13:23:01.287Z,12216.00
2022-09-15T13:24:01.249Z,11804.00
2022-09-15T13:25:02.047Z,11628.00
2022-09-15T13:26:36.969Z,11712.00
2022-09-15T13:27:01.229Z,11500.00
2022-09-15T13:28:01.267Z,10980.00
2022-09-15T13:29:01.249Z,10768.00
2022-09-15T13:30:01.260Z,10668.00
2022-09-15T13:31:01.277Z,10584.00
2022-09-15T13:32:01.212Z,10432.00
2022-09-15T13:33:01.220Z,10264.00
2022-09-15T13:35:15.185Z,9884.00
2022-09-15T13:36:10.955Z,9720.00
2022-09-15T13:38:21.867Z,9812.00
2022-09-15T13:39:13.150Z,9936.00
2022-09-15T13:41:21.597Z,9820.00
2022-09-15T13:42:21.719Z,9612.00
2022-09-15T13:45:31.970Z,8996.00
2022-09-15T13:46:32.009Z,8744.00
2022-09-15T13:47:33.105Z,8200.00
2022-09-15T13:48:33.074Z,7624.00
2022-09-15T13:49:33.063Z,7120.00
2022-09-15T13:50:33.097Z,6492.00
2022-09-15T13:51:33.135Z,5924.00
2022-09-15T13:52:33.173Z,5680.00
2022-09-15T13:53:33.186Z,5616.00
